createdAt,value
2018-12-23T00:01:00.277Z,15.33
2018-12-23T00:03:35.254Z,10.07
2018-12-23T00:06:04.634Z,9.83
2018-12-23T00:08:35.326Z,8.80
2018-12-23T00:11:08.659Z,12.73
2018-12-23T00:13:38.527Z,10.53
2018-12-23T00:16:07.519Z,9.63
2018-12-23T00:18:36.724Z,8.10
2018-12-23T00:21:05.914Z,8.87
2018-12-23T00:23:39.034Z,13.37
2018-12-23T00:26:14.012Z,6.43
2018-12-23T00:28:46.198Z,7.73
2018-12-23T00:31:21.682Z,7.73
2018-12-23T00:33:50.981Z,8.03
2018-12-23T00:36:20.102Z,8.53
2018-12-23T00:38:49.102Z,15.77
2018-12-23T00:41:25.041Z,8.13
2018-12-23T00:44:00.011Z,8.13
2018-12-23T00:46:32.426Z,8.83
2018-12-23T00:49:05.635Z,12.53
2018-12-23T00:51:41.214Z,11.53
2018-12-23T00:54:11.943Z,8.90
2018-12-23T00:56:45.369Z,13.53
2018-12-23T00:59:20.409Z,9.87
2018-12-23T01:01:55.714Z,14.33
2018-12-23T01:04:30.578Z,8.03
2018-12-23T01:06:59.961Z,7.33
2018-12-23T01:09:31.246Z,12.47
2018-12-23T01:12:01.675Z,10.37
2018-12-23T01:14:37.134Z,13.97
2018-12-23T01:17:12.171Z,7.70
2018-12-23T01:19:42.211Z,7.17
2018-12-23T01:22:17.251Z,17.27
2018-12-23T01:24:51.833Z,8.60
2018-12-23T01:27:21.018Z,9.53
2018-12-23T01:29:53.767Z,10.20
2018-12-23T01:32:26.474Z,7.53
2018-12-23T01:34:57.579Z,8.67
2018-12-23T01:37:32.426Z,10.00
2018-12-23T01:40:02.206Z,4.90
2018-12-23T01:42:36.831Z,8.27
2018-12-23T01:45:06.654Z,10.53
2018-12-23T01:47:41.461Z,15.10
2018-12-23T01:50:12.703Z,9.10
2018-12-23T01:52:41.699Z,10.57
2018-12-23T01:55:13.134Z,6.67
2018-12-23T01:57:44.032Z,7.27
2018-12-23T02:00:19.718Z,9.67
2018-12-23T02:02:50.814Z,14.40
2018-12-23T02:05:25.766Z,5.60
2018-12-23T02:07:55.093Z,9.30
2018-12-23T02:10:26.182Z,6.47
2018-12-23T02:13:01.150Z,7.20
2018-12-23T02:15:34.390Z,11.10
2018-12-23T02:18:07.181Z,8.93
2018-12-23T02:20:36.698Z,10.50
2018-12-23T02:23:09.390Z,10.40
2018-12-23T02:25:38.386Z,8.93
2018-12-23T02:28:13.342Z,7.80
2018-12-23T02:30:42.343Z,7.80
2018-12-23T02:33:11.749Z,4.37
2018-12-23T02:35:43.987Z,7.23
2018-12-23T02:38:18.455Z,9.23
2018-12-23T02:40:51.042Z,13.20
2018-12-23T02:43:23.758Z,7.47
2018-12-23T02:45:59.038Z,10.33
2018-12-23T02:48:32.554Z,9.40
2018-12-23T02:51:05.415Z,8.87
2018-12-23T02:53:40.247Z,12.50
2018-12-23T02:56:11.233Z,8.13
2018-12-23T02:58:43.884Z,6.33
2018-12-23T03:01:13.286Z,7.03
2018-12-23T03:03:42.295Z,9.40
2018-12-23T03:06:12.812Z,7.07
2018-12-23T03:08:51.730Z,9.37
2018-12-23T03:11:20.738Z,8.73
2018-12-23T03:13:51.886Z,12.80
2018-12-23T03:16:24.820Z,10.20
2018-12-23T03:18:53.807Z,5.70
2018-12-23T03:21:26.314Z,11.80
2018-12-23T03:23:56.590Z,9.60
2018-12-23T03:26:26.430Z,6.30
2018-12-23T03:29:01.396Z,8.43
2018-12-23T03:31:34.308Z,10.30
2018-12-23T03:34:07.667Z,12.13
2018-12-23T03:36:40.992Z,15.60
2018-12-23T03:39:16.183Z,11.93
2018-12-23T03:41:51.383Z,7.83
2018-12-23T03:44:23.949Z,5.80
2018-12-23T03:46:59.554Z,10.67
2018-12-23T03:49:32.870Z,7.37
2018-12-23T03:52:05.274Z,10.80
2018-12-23T03:54:40.134Z,9.77
2018-12-23T03:57:12.682Z,13.20
2018-12-23T03:59:42.807Z,11.60
2018-12-23T04:02:15.475Z,9.53
2018-12-23T04:04:50.558Z,15.93
2018-12-23T04:07:20.682Z,13.87
2018-12-23T04:09:54.270Z,13.03
2018-12-23T04:12:23.420Z,7.40
2018-12-23T04:14:56.391Z,17.17
2018-12-23T04:17:31.739Z,11.27
2018-12-23T04:20:02.465Z,13.20
2018-12-23T04:22:37.770Z,10.20
2018-12-23T04:25:08.177Z,9.90
2018-12-23T04:27:43.358Z,14.50
2018-12-23T04:30:16.305Z,9.70
2018-12-23T04:32:45.299Z,18.27
2018-12-23T04:35:20.735Z,15.47
2018-12-23T04:37:55.915Z,9.60
2018-12-23T04:40:34.747Z,18.47
2018-12-23T04:43:07.042Z,18.93
2018-12-23T04:45:40.683Z,17.33
2018-12-23T04:48:12.975Z,15.63
2018-12-23T04:50:43.867Z,20.27
2018-12-23T04:53:19.222Z,15.77
2018-12-23T04:55:48.202Z,15.57
2018-12-23T04:58:22.906Z,14.60
2018-12-23T05:00:51.890Z,17.13
2018-12-23T05:03:24.782Z,12.90
2018-12-23T05:05:59.844Z,19.27
2018-12-23T05:08:34.502Z,20.53
2018-12-23T05:11:03.839Z,18.03
2018-12-23T05:13:34.315Z,26.13
2018-12-23T05:16:07.535Z,22.30
2018-12-23T05:18:38.383Z,21.53
2018-12-23T05:21:09.292Z,19.10
2018-12-23T05:23:38.286Z,23.00
2018-12-23T05:26:08.062Z,27.87
2018-12-23T05:28:37.065Z,17.03
2018-12-23T05:31:09.873Z,24.60
2018-12-23T05:33:42.690Z,25.50
2018-12-23T05:36:12.030Z,21.80
2018-12-23T05:38:41.423Z,21.40
2018-12-23T05:41:13.835Z,26.97
2018-12-23T05:43:49.577Z,24.70
2018-12-23T05:46:22.392Z,27.63
2018-12-23T05:48:51.402Z,27.67
2018-12-23T05:51:23.802Z,20.60
2018-12-23T05:53:56.614Z,27.47
2018-12-23T05:56:31.578Z,38.17
2018-12-23T05:59:02.059Z,33.00
2018-12-23T06:01:34.993Z,23.27
2018-12-23T06:04:10.072Z,27.00
2018-12-23T06:06:39.148Z,31.43
2018-12-23T06:09:14.010Z,32.53
2018-12-23T06:11:49.566Z,28.87
2018-12-23T06:14:24.397Z,29.23
2018-12-23T06:16:59.306Z,32.73
2018-12-23T06:19:30.213Z,26.60
2018-12-23T06:22:05.258Z,30.60
2018-12-23T06:24:37.991Z,28.47
2018-12-23T06:27:06.977Z,23.37
2018-12-23T06:34:36.372Z,34.73
2018-12-23T06:37:09.892Z,38.37
2018-12-23T06:39:36.870Z,27.43
2018-12-23T06:42:05.843Z,32.83
2018-12-23T06:44:38.143Z,31.40
2018-12-23T06:47:11.034Z,32.57
2018-12-23T06:49:44.151Z,34.03
2018-12-23T06:52:13.382Z,32.40
2018-12-23T06:54:45.654Z,30.63
2018-12-23T06:57:14.656Z,29.10
2018-12-23T06:59:45.170Z,27.80
2018-12-23T07:02:14.891Z,30.57
2018-12-23T07:04:47.314Z,34.07
2018-12-23T07:07:18.725Z,31.83
2018-12-23T07:09:49.010Z,30.43
2018-12-23T07:12:21.694Z,31.33
2018-12-23T07:14:52.406Z,35.27
2018-12-23T07:17:27.866Z,35.70
2018-12-23T07:20:02.335Z,32.30
2018-12-23T07:22:31.423Z,37.13
2018-12-23T07:25:05.377Z,36.87
2018-12-23T07:27:34.763Z,33.43
2018-12-23T07:30:08.485Z,38.87
2018-12-23T07:32:37.798Z,38.10
2018-12-23T07:35:10.071Z,40.50
2018-12-23T07:37:40.818Z,35.90
2018-12-23T07:40:10.330Z,41.28
2018-12-23T07:42:42.634Z,37.43
2018-12-23T07:45:17.682Z,34.00
2018-12-23T07:48:00.286Z,35.23
2018-12-23T07:50:34.808Z,40.67
2018-12-23T07:53:10.758Z,34.73
2018-12-23T07:55:47.978Z,39.60
2018-12-23T07:58:18.621Z,35.57
2018-12-23T08:00:48.090Z,37.83
2018-12-23T08:03:28.326Z,40.67
2018-12-23T08:05:58.532Z,40.50
2018-12-23T08:08:33.927Z,34.07
2018-12-23T08:11:08.776Z,31.23
2018-12-23T08:13:39.911Z,37.97
2018-12-23T08:16:10.559Z,40.70
2018-12-23T08:18:45.960Z,44.50
2018-12-23T08:21:18.303Z,50.43
2018-12-23T08:23:48.927Z,39.17
2018-12-23T08:26:19.734Z,38.00
2018-12-23T08:28:53.167Z,38.57
2018-12-23T08:31:23.588Z,31.43
2018-12-23T08:33:53.003Z,38.63
2018-12-23T08:36:25.224Z,37.43
2018-12-23T08:38:58.114Z,42.70
2018-12-23T08:41:32.945Z,33.87
2018-12-23T08:44:02.830Z,38.50
2018-12-23T08:46:39.330Z,34.73
2018-12-23T08:49:10.429Z,35.47
2018-12-23T08:51:41.247Z,33.63
2018-12-23T08:54:13.455Z,34.77
2018-12-23T08:56:42.545Z,33.37
2018-12-23T08:59:15.301Z,35.43
2018-12-23T09:01:48.922Z,37.20
2018-12-23T09:04:21.584Z,37.33
2018-12-23T09:06:50.595Z,39.70
2018-12-23T09:09:21.446Z,41.57
2018-12-23T09:11:50.918Z,34.57
2018-12-23T09:14:25.492Z,39.17
2018-12-23T09:16:54.902Z,36.00
2018-12-23T09:19:28.018Z,35.10
2018-12-23T09:22:02.983Z,41.87
2018-12-23T09:24:37.538Z,33.07
2018-12-23T09:27:06.950Z,41.80
2018-12-23T09:29:36.638Z,33.80
2018-12-23T09:32:09.138Z,42.73
2018-12-23T09:34:44.334Z,48.13
2018-12-23T09:37:19.004Z,35.77
2018-12-23T09:39:48.017Z,36.63
2018-12-23T09:42:17.018Z,39.50
2018-12-23T09:44:46.346Z,36.87
2018-12-23T09:47:21.225Z,41.70
2018-12-23T09:49:50.315Z,39.40
2018-12-23T09:52:26.017Z,41.03
2018-12-23T09:54:55.014Z,36.90
2018-12-23T09:57:28.154Z,36.60
2018-12-23T09:59:57.142Z,41.47
2018-12-23T10:02:29.176Z,41.27
2018-12-23T10:04:58.461Z,32.27
2018-12-23T10:07:29.632Z,37.27
2018-12-23T10:10:03.154Z,42.10
2018-12-23T10:12:32.158Z,37.30
2018-12-23T10:15:01.334Z,36.80
2018-12-23T10:17:30.679Z,32.10
2018-12-23T10:20:01.524Z,34.57
2018-12-23T10:22:34.929Z,37.73
2018-12-23T10:25:11.044Z,37.63
2018-12-23T10:27:44.108Z,37.10
2018-12-23T10:33:52.346Z,36.43
2018-12-23T10:36:36.784Z,34.93
2018-12-23T10:39:10.052Z,42.13
2018-12-23T10:41:59.239Z,38.53
2018-12-23T10:44:41.338Z,32.63
2018-12-23T10:47:24.985Z,31.00
2018-12-23T10:50:06.560Z,35.10
2018-12-23T10:52:48.226Z,36.13
2018-12-23T10:55:30.489Z,34.00
2018-12-23T10:58:12.609Z,31.93
2018-12-23T11:00:54.703Z,28.97
2018-12-23T11:03:38.828Z,34.53
2018-12-23T11:06:23.801Z,38.97
2018-12-23T11:09:06.272Z,29.90
2018-12-23T11:11:48.740Z,37.33
2018-12-23T11:14:31.455Z,35.43
2018-12-23T11:17:13.784Z,33.77
2018-12-23T11:19:56.236Z,32.53
2018-12-23T11:22:38.696Z,33.83
2018-12-23T11:25:21.199Z,28.70
2018-12-23T11:28:03.555Z,39.23
2018-12-23T11:30:45.295Z,35.77
2018-12-23T11:33:27.597Z,30.67
2018-12-23T11:36:08.283Z,39.13
2018-12-23T11:38:50.013Z,27.43
2018-12-23T11:41:32.228Z,30.93
2018-12-23T11:44:13.943Z,31.47
2018-12-23T11:46:55.664Z,30.97
2018-12-23T11:49:37.991Z,24.13
2018-12-23T11:52:20.364Z,28.40
2018-12-23T11:55:02.397Z,28.50
2018-12-23T11:57:44.333Z,31.40
2018-12-23T12:00:26.592Z,25.20
2018-12-23T12:03:08.287Z,27.73
2018-12-23T12:05:50.096Z,27.13
2018-12-23T12:08:33.408Z,27.27
2018-12-23T12:11:15.352Z,28.33
2018-12-23T12:13:57.551Z,26.83
2018-12-23T12:16:39.539Z,31.00
2018-12-23T12:19:21.615Z,25.90
2018-12-23T12:22:04.111Z,25.63
2018-12-23T12:24:46.541Z,23.57
2018-12-23T12:27:28.575Z,22.53
2018-12-23T12:30:10.751Z,25.17
2018-12-23T12:32:53.411Z,26.40
2018-12-23T12:35:35.183Z,29.80
2018-12-23T12:38:18.059Z,27.47
2018-12-23T12:40:59.900Z,29.00
2018-12-23T12:43:41.756Z,28.87
2018-12-23T12:46:24.602Z,29.10
2018-12-23T12:49:06.365Z,32.43
2018-12-23T12:51:47.896Z,34.80
2018-12-23T12:54:30.562Z,28.27
2018-12-23T12:57:12.820Z,32.93
2018-12-23T12:59:54.632Z,34.97
2018-12-23T13:02:24.956Z,29.20
2018-12-23T13:05:10.323Z,26.10
2018-12-23T13:07:52.875Z,23.33
2018-12-23T13:10:43.249Z,24.33
2018-12-23T13:14:02.196Z,32.83
2018-12-23T13:17:13.708Z,25.40
2018-12-23T13:19:41.650Z,23.80
2018-12-23T13:22:43.746Z,24.13
2018-12-23T13:25:33.379Z,23.43
2018-12-23T13:28:15.866Z,19.13
2018-12-23T13:30:58.040Z,18.23
2018-12-23T13:33:40.412Z,22.67
2018-12-23T13:36:24.238Z,23.77
2018-12-23T13:39:09.079Z,22.50
2018-12-23T13:42:01.817Z,22.90
2018-12-23T13:45:10.376Z,21.43
2018-12-23T13:48:18.907Z,33.93
2018-12-23T13:51:08.084Z,19.53
2018-12-23T13:57:12.474Z,23.13
2018-12-23T13:59:54.612Z,23.20
2018-12-23T14:02:36.555Z,20.07
2018-12-23T14:05:18.906Z,20.00
2018-12-23T14:08:00.824Z,22.30
2018-12-23T14:10:43.069Z,21.93
2018-12-23T14:13:24.664Z,20.50
2018-12-23T14:16:07.183Z,20.70
2018-12-23T14:18:47.475Z,18.60
2018-12-23T14:21:36.903Z,23.17
2018-12-23T14:24:19.033Z,22.43
2018-12-23T14:27:01.261Z,21.70
2018-12-23T14:29:43.723Z,22.90
2018-12-23T14:32:26.139Z,23.00
2018-12-23T14:35:08.787Z,22.50
2018-12-23T14:37:50.904Z,23.50
2018-12-23T14:40:32.647Z,26.70
2018-12-23T14:43:14.611Z,22.60
2018-12-23T14:45:56.292Z,17.60
2018-12-23T14:48:38.300Z,15.07
2018-12-23T14:51:20.787Z,20.53
2018-12-23T14:54:03.156Z,15.63
2018-12-23T14:56:45.223Z,19.60
2018-12-23T14:59:26.915Z,18.40
2018-12-23T15:05:08.207Z,17.73
2018-12-23T15:07:50.241Z,17.27
2018-12-23T15:10:32.823Z,17.63
2018-12-23T15:13:15.483Z,21.30
2018-12-23T15:15:58.575Z,14.43
2018-12-23T15:18:41.212Z,21.40
2018-12-23T15:21:22.988Z,19.10
2018-12-23T15:24:06.031Z,28.03
2018-12-23T15:26:48.651Z,23.73
2018-12-23T15:29:30.387Z,19.93
2018-12-23T15:32:00.788Z,18.00
2018-12-23T15:34:50.284Z,17.57
2018-12-23T15:37:32.524Z,18.67
2018-12-23T15:40:14.903Z,20.23
2018-12-23T15:42:57.227Z,20.17
2018-12-23T15:45:39.589Z,18.43
2018-12-23T15:48:21.920Z,19.43
2018-12-23T15:51:04.376Z,17.60
2018-12-23T15:53:46.396Z,18.23
2018-12-23T15:58:31.229Z,18.90
2018-12-23T16:01:14.501Z,16.00
2018-12-23T16:03:57.146Z,16.83
2018-12-23T16:06:39.537Z,16.43
2018-12-23T16:09:22.255Z,15.67
2018-12-23T16:12:04.880Z,14.53
2018-12-23T16:14:47.683Z,11.83
2018-12-23T16:17:30.899Z,9.60
2018-12-23T16:20:13.612Z,11.27
2018-12-23T16:22:56.656Z,10.60
2018-12-23T16:25:39.151Z,9.07
2018-12-23T16:28:22.300Z,8.90
2018-12-23T16:31:04.976Z,7.20
2018-12-23T16:33:48.611Z,7.43
2018-12-23T16:36:31.243Z,9.23
2018-12-23T16:39:14.336Z,8.50
2018-12-23T16:41:56.852Z,7.03
2018-12-23T16:44:39.799Z,7.27
2018-12-23T16:47:22.915Z,10.33
2018-12-23T16:50:05.028Z,6.33
2018-12-23T16:52:47.575Z,7.33
2018-12-23T16:55:30.273Z,6.57
2018-12-23T16:58:12.864Z,9.10
2018-12-23T17:00:55.868Z,7.83
2018-12-23T17:03:40.323Z,9.87
2018-12-23T17:06:22.704Z,8.57
2018-12-23T17:09:05.576Z,8.20
2018-12-23T17:11:48.685Z,6.13
2018-12-23T17:14:31.640Z,8.00
2018-12-23T17:17:14.367Z,8.13
2018-12-23T17:19:56.711Z,9.97
2018-12-23T17:22:40.243Z,8.97
2018-12-23T17:25:23.088Z,9.13
2018-12-23T17:28:05.522Z,7.90
2018-12-23T17:30:48.756Z,8.43
2018-12-23T17:33:31.340Z,7.90
2018-12-23T17:36:13.841Z,10.60
2018-12-23T17:38:56.649Z,10.17
2018-12-23T17:41:39.230Z,9.93
2018-12-23T17:44:22.408Z,12.60
2018-12-23T17:47:05.504Z,11.13
2018-12-23T17:49:48.802Z,11.30
2018-12-23T17:52:33.871Z,9.47
2018-12-23T17:55:16.966Z,8.97
2018-12-23T18:00:51.856Z,12.63
2018-12-23T18:03:34.625Z,10.47
2018-12-23T18:06:18.208Z,14.53
2018-12-23T18:09:00.647Z,12.97
2018-12-23T18:11:44.025Z,13.47
2018-12-23T18:14:26.876Z,11.77
2018-12-23T18:17:09.604Z,15.83
2018-12-23T18:19:52.656Z,12.47
2018-12-23T18:22:35.570Z,11.97
2018-12-23T18:25:18.154Z,13.60
2018-12-23T18:28:00.959Z,11.27
2018-12-23T18:30:43.758Z,10.63
2018-12-23T18:33:27.484Z,12.63
2018-12-23T18:36:10.657Z,10.80
2018-12-23T18:38:53.143Z,10.63
2018-12-23T18:41:35.591Z,13.43
2018-12-23T18:44:18.428Z,11.07
2018-12-23T18:46:49.684Z,10.90
2018-12-23T18:49:32.045Z,15.00
2018-12-23T18:52:14.515Z,13.43
2018-12-23T18:54:57.205Z,10.60
2018-12-23T18:57:40.092Z,11.65
2018-12-23T19:00:22.668Z,12.80
2018-12-23T19:03:04.879Z,10.07
2018-12-23T19:05:47.476Z,10.17
2018-12-23T19:08:30.531Z,11.77
2018-12-23T19:11:13.459Z,13.87
2018-12-23T19:14:01.818Z,13.77
2018-12-23T19:16:44.399Z,11.93
2018-12-23T19:19:24.680Z,12.03
2018-12-23T19:25:12.348Z,15.23
2018-12-23T19:27:54.840Z,16.97
2018-12-23T19:30:37.464Z,13.27
2018-12-23T19:33:20.276Z,12.40
2018-12-23T19:36:03.148Z,12.67
2018-12-23T19:38:45.807Z,15.17
2018-12-23T19:41:37.740Z,15.37
2018-12-23T19:44:20.572Z,17.10
2018-12-23T19:47:03.503Z,17.33
2018-12-23T19:49:51.087Z,16.17
2018-12-23T19:52:30.535Z,17.87
2018-12-23T19:55:13.216Z,20.30
2018-12-23T19:57:55.899Z,16.07
2018-12-23T20:00:39.307Z,17.33
2018-12-23T20:03:22.139Z,15.67
2018-12-23T20:06:05.316Z,13.37
2018-12-23T20:08:47.615Z,15.00
2018-12-23T20:11:30.374Z,14.27
2018-12-23T20:14:13.248Z,13.50
2018-12-23T20:16:56.051Z,14.20
2018-12-23T20:19:38.559Z,13.53
2018-12-23T20:22:21.312Z,14.90
2018-12-23T20:25:03.933Z,14.33
2018-12-23T20:27:47.039Z,14.63
2018-12-23T20:30:29.803Z,13.07
2018-12-23T20:33:12.428Z,14.93
2018-12-23T20:35:55.691Z,12.00
2018-12-23T20:38:38.331Z,16.30
2018-12-23T20:41:20.760Z,14.37
2018-12-23T20:44:02.983Z,13.40
2018-12-23T20:46:45.525Z,11.83
2018-12-23T20:49:28.316Z,13.13
2018-12-23T20:52:11.247Z,13.27
2018-12-23T20:54:54.158Z,12.10
2018-12-23T20:57:37.088Z,11.13
2018-12-23T21:00:19.598Z,9.20
2018-12-23T21:03:02.479Z,10.97
2018-12-23T21:05:45.384Z,9.40
2018-12-23T21:08:28.458Z,12.03
2018-12-23T21:11:16.022Z,11.33
2018-12-23T21:13:55.067Z,10.27
2018-12-23T21:16:44.067Z,11.90
2018-12-23T21:19:26.788Z,10.20
2018-12-23T21:22:09.701Z,11.77
2018-12-23T21:24:52.604Z,11.20
2018-12-23T21:27:36.199Z,9.53
2018-12-23T21:30:18.540Z,11.60
2018-12-23T21:33:00.996Z,11.60
2018-12-23T21:35:43.084Z,11.87
2018-12-23T21:38:25.659Z,9.30
2018-12-23T21:41:08.079Z,8.00
2018-12-23T21:43:51.157Z,8.20
2018-12-23T21:46:35.048Z,7.97
2018-12-23T21:49:17.495Z,7.33
2018-12-23T21:52:00.364Z,9.67
2018-12-23T21:54:42.964Z,7.10
2018-12-23T21:57:25.708Z,7.80
2018-12-23T22:00:08.943Z,8.37
2018-12-23T22:02:52.175Z,6.43
2018-12-23T22:05:35.378Z,4.83
2018-12-23T22:08:21.950Z,5.67
2018-12-23T22:11:04.839Z,5.60
2018-12-23T22:13:48.168Z,5.30
2018-12-23T22:16:30.712Z,4.43
2018-12-23T22:19:13.129Z,5.43
2018-12-23T22:21:55.791Z,5.30
2018-12-23T22:24:38.339Z,4.17
2018-12-23T22:27:21.196Z,4.87
2018-12-23T22:30:03.712Z,4.10
2018-12-23T22:32:46.669Z,4.43
2018-12-23T22:35:18.322Z,5.40
2018-12-23T22:38:08.534Z,4.33
2018-12-23T22:40:51.310Z,2.77
2018-12-23T22:43:33.708Z,2.57
2018-12-23T22:46:16.229Z,2.03
2018-12-23T22:49:01.507Z,2.70
2018-12-23T22:51:44.132Z,2.67
2018-12-23T22:54:27.155Z,1.53
2018-12-23T22:57:09.852Z,2.30
2018-12-23T22:59:53.985Z,3.57
2018-12-23T23:02:36.710Z,2.33
2018-12-23T23:05:19.681Z,2.93
2018-12-23T23:08:01.969Z,3.63
2018-12-23T23:10:44.573Z,3.23
2018-12-23T23:13:27.818Z,3.13
2018-12-23T23:16:10.664Z,2.90
2018-12-23T23:18:54.192Z,2.33
2018-12-23T23:21:37.715Z,2.97
2018-12-23T23:24:21.404Z,4.27
2018-12-23T23:27:04.714Z,3.47
2018-12-23T23:29:47.929Z,3.03
2018-12-23T23:32:30.919Z,6.50
2018-12-23T23:35:13.716Z,4.13
2018-12-23T23:37:58.044Z,5.90
2018-12-23T23:40:44.520Z,3.53
2018-12-23T23:43:27.850Z,3.97
2018-12-23T23:46:12.300Z,5.40
2018-12-23T23:48:55.257Z,4.97
2018-12-23T23:51:37.971Z,6.60
2018-12-23T23:54:20.551Z,5.90
2018-12-23T23:57:03.491Z,3.73
2018-12-23T23:59:46.764Z,5.37
